createdAt,value
2017-08-19T00:00:17.151Z,15.75
2017-08-19T00:02:42.903Z,15.68
2017-08-19T00:05:08.683Z,15.79
2017-08-19T00:07:34.462Z,15.89
2017-08-19T00:10:00.299Z,15.85
2017-08-19T00:12:26.087Z,15.75
2017-08-19T00:14:51.833Z,15.78
2017-08-19T00:17:17.635Z,15.71
2017-08-19T00:19:43.392Z,15.56
2017-08-19T00:22:09.186Z,15.60
2017-08-19T00:24:34.967Z,15.61
2017-08-19T00:27:00.716Z,15.47
2017-08-19T00:29:26.518Z,15.45
2017-08-19T00:31:52.279Z,15.39
2017-08-19T00:34:18.071Z,15.43
2017-08-19T00:36:43.859Z,15.59
2017-08-19T00:39:09.642Z,15.58
2017-08-19T00:41:35.399Z,15.62
2017-08-19T00:44:01.288Z,15.74
2017-08-19T00:46:27.048Z,15.76
2017-08-19T00:48:52.818Z,15.74
2017-08-19T00:51:18.646Z,15.77
2017-08-19T00:53:44.455Z,15.71
2017-08-19T00:56:10.224Z,15.75
2017-08-19T00:58:36.041Z,15.87
2017-08-19T01:01:01.786Z,15.89
2017-08-19T01:03:27.556Z,15.87
2017-08-19T01:05:53.364Z,15.75
2017-08-19T01:08:19.155Z,15.59
2017-08-19T01:10:44.952Z,15.66
2017-08-19T01:13:10.703Z,15.44
2017-08-19T01:15:36.496Z,15.36
2017-08-19T01:18:02.294Z,15.53
2017-08-19T01:20:28.062Z,15.35
2017-08-19T01:22:53.869Z,15.44
2017-08-19T01:25:32.068Z,15.41
2017-08-19T01:27:57.851Z,15.31
2017-08-19T01:30:23.669Z,15.41
2017-08-19T01:32:49.454Z,15.30
2017-08-19T01:35:15.203Z,15.28
2017-08-19T01:37:41.012Z,15.28
2017-08-19T01:40:06.779Z,15.29
2017-08-19T01:42:32.551Z,15.43
2017-08-19T01:44:58.371Z,15.27
2017-08-19T01:47:24.187Z,15.31
2017-08-19T01:49:49.936Z,15.17
2017-08-19T01:52:15.735Z,15.11
2017-08-19T01:54:41.506Z,15.03
2017-08-19T01:57:07.313Z,15.11
2017-08-19T01:59:33.080Z,15.16
2017-08-19T02:01:58.844Z,15.15
2017-08-19T02:04:24.643Z,15.14
2017-08-19T02:06:50.404Z,15.11
2017-08-19T02:09:16.151Z,15.21
2017-08-19T02:11:41.948Z,15.13
2017-08-19T02:14:07.743Z,15.08
2017-08-19T02:16:33.507Z,15.12
2017-08-19T02:18:59.295Z,14.76
2017-08-19T02:21:25.047Z,14.64
2017-08-19T02:23:50.863Z,14.76
2017-08-19T02:26:16.638Z,14.67
2017-08-19T02:28:42.383Z,14.63
2017-08-19T02:31:08.146Z,14.66
2017-08-19T02:33:33.942Z,14.70
2017-08-19T02:35:59.698Z,14.69
2017-08-19T02:38:25.563Z,14.84
2017-08-19T02:40:51.358Z,14.54
2017-08-19T02:43:17.148Z,14.44
2017-08-19T02:45:42.951Z,14.59
2017-08-19T02:48:08.739Z,14.47
2017-08-19T02:50:34.508Z,14.41
2017-08-19T02:53:00.262Z,14.48
2017-08-19T02:55:26.047Z,14.23
2017-08-19T02:57:51.842Z,14.07
2017-08-19T03:00:17.649Z,13.97
2017-08-19T03:02:43.395Z,14.02
2017-08-19T03:05:09.159Z,13.81
2017-08-19T03:07:34.963Z,13.87
2017-08-19T03:10:00.960Z,13.87
2017-08-19T03:12:26.743Z,13.62
2017-08-19T03:14:52.527Z,13.39
2017-08-19T03:17:18.282Z,13.56
2017-08-19T03:19:44.055Z,13.53
2017-08-19T03:22:09.855Z,13.55
2017-08-19T03:24:35.619Z,13.55
2017-08-19T03:27:01.377Z,13.52
2017-08-19T03:29:27.215Z,13.45
2017-08-19T03:31:52.979Z,13.62
2017-08-19T03:34:18.759Z,13.70
2017-08-19T03:36:44.556Z,13.29
2017-08-19T03:39:10.307Z,13.39
2017-08-19T03:41:36.063Z,13.55
2017-08-19T03:44:01.855Z,13.53
2017-08-19T03:46:27.621Z,13.60
2017-08-19T03:48:53.406Z,13.52
2017-08-19T03:51:19.182Z,13.65
2017-08-19T03:53:44.941Z,13.49
2017-08-19T03:56:10.715Z,13.66
2017-08-19T03:58:36.496Z,13.61
2017-08-19T04:01:02.331Z,13.44
2017-08-19T04:03:28.215Z,13.45
2017-08-19T04:05:54.015Z,13.49
2017-08-19T04:08:19.801Z,13.67
2017-08-19T04:10:45.544Z,13.68
2017-08-19T04:13:11.363Z,13.83
2017-08-19T04:15:37.223Z,13.56
2017-08-19T04:18:03.021Z,13.65
2017-08-19T04:20:28.775Z,13.58
2017-08-19T04:22:54.569Z,13.61
2017-08-19T04:25:20.331Z,13.62
2017-08-19T04:27:46.099Z,13.80
2017-08-19T04:30:11.919Z,13.74
2017-08-19T04:32:37.676Z,13.75
2017-08-19T04:35:03.443Z,13.83
2017-08-19T04:37:29.231Z,13.89
2017-08-19T04:39:55.032Z,13.77
2017-08-19T04:42:20.862Z,13.74
2017-08-19T04:44:46.653Z,13.86
2017-08-19T04:47:12.415Z,13.89
2017-08-19T04:49:38.182Z,13.89
2017-08-19T04:52:04.776Z,14.01
2017-08-19T04:54:30.557Z,13.90
2017-08-19T04:56:56.355Z,13.84
2017-08-19T04:59:22.137Z,13.88
2017-08-19T05:01:47.907Z,13.80
2017-08-19T05:04:13.755Z,13.99
2017-08-19T05:06:39.567Z,14.15
2017-08-19T05:09:05.379Z,14.15
2017-08-19T05:11:31.207Z,14.20
2017-08-19T05:13:57.062Z,14.27
2017-08-19T05:16:22.867Z,14.32
2017-08-19T05:18:48.707Z,14.30
2017-08-19T05:21:14.504Z,14.31
2017-08-19T05:23:40.335Z,14.34
2017-08-19T05:26:06.105Z,14.31
2017-08-19T05:28:31.876Z,14.35
2017-08-19T05:30:57.635Z,14.32
2017-08-19T05:33:23.467Z,14.32
2017-08-19T05:35:49.243Z,14.29
2017-08-19T05:38:15.113Z,14.11
2017-08-19T05:40:40.942Z,14.10
2017-08-19T05:43:06.703Z,14.24
2017-08-19T05:45:32.499Z,14.29
2017-08-19T05:47:58.252Z,14.41
2017-08-19T05:50:24.009Z,14.60
2017-08-19T05:52:49.823Z,14.61
2017-08-19T05:55:15.586Z,14.73
2017-08-19T05:57:41.371Z,14.73
2017-08-19T06:00:07.995Z,14.90
2017-08-19T06:02:33.803Z,14.92
2017-08-19T06:04:59.583Z,15.03
2017-08-19T06:07:25.427Z,14.92
2017-08-19T06:09:51.238Z,14.59
2017-08-19T06:12:17.042Z,14.79
2017-08-19T06:14:42.900Z,14.87
2017-08-19T06:17:08.716Z,14.91
2017-08-19T06:19:34.491Z,14.87
2017-08-19T06:22:00.270Z,14.80
2017-08-19T06:24:26.093Z,14.70
2017-08-19T06:26:51.850Z,14.69
2017-08-19T06:29:17.654Z,14.66
2017-08-19T06:31:43.414Z,14.79
2017-08-19T06:34:09.513Z,14.95
2017-08-19T06:36:35.272Z,14.96
2017-08-19T06:39:01.040Z,15.05
2017-08-19T06:41:26.835Z,15.40
2017-08-19T06:43:52.628Z,15.45
2017-08-19T06:46:18.375Z,15.29
2017-08-19T06:48:44.137Z,15.46
2017-08-19T06:51:09.912Z,15.27
2017-08-19T06:53:35.681Z,15.62
2017-08-19T06:56:01.459Z,15.55
2017-08-19T06:58:27.299Z,15.61
2017-08-19T07:00:53.131Z,15.92
2017-08-19T07:03:18.899Z,15.92
2017-08-19T07:05:44.675Z,15.86
2017-08-19T07:08:10.459Z,15.86
2017-08-19T07:10:36.256Z,15.51
2017-08-19T07:13:02.079Z,15.57
2017-08-19T07:15:27.878Z,15.83
2017-08-19T07:17:53.652Z,16.14
2017-08-19T07:20:19.466Z,15.92
2017-08-19T07:22:45.212Z,16.14
2017-08-19T07:25:11.006Z,16.16
2017-08-19T07:27:36.800Z,16.22
2017-08-19T07:30:02.568Z,16.19
2017-08-19T07:32:28.330Z,16.18
2017-08-19T07:34:54.123Z,16.32
2017-08-19T07:37:19.871Z,16.23
2017-08-19T07:39:45.708Z,16.27
2017-08-19T07:42:19.564Z,16.27
2017-08-19T07:44:45.413Z,16.34
2017-08-19T07:47:11.186Z,16.43
2017-08-19T07:49:36.935Z,16.64
2017-08-19T07:52:02.734Z,16.67
2017-08-19T07:54:28.495Z,17.34
2017-08-19T07:56:54.247Z,18.36
2017-08-19T08:01:51.575Z,19.09
2017-08-19T08:04:17.320Z,18.76
2017-08-19T08:06:43.106Z,18.34
2017-08-19T08:09:08.921Z,18.32
2017-08-19T08:11:34.667Z,17.67
2017-08-19T08:14:00.440Z,18.27
2017-08-19T08:16:26.252Z,19.07
2017-08-19T08:18:52.080Z,19.54
2017-08-19T08:21:17.894Z,19.26
2017-08-19T08:23:43.651Z,19.28
2017-08-19T08:26:09.424Z,19.23
2017-08-19T08:28:35.335Z,19.37
2017-08-19T08:31:01.091Z,19.32
2017-08-19T08:33:26.856Z,19.62
2017-08-19T08:35:52.648Z,19.76
2017-08-19T08:38:18.442Z,19.67
2017-08-19T08:40:44.231Z,19.90
2017-08-19T08:43:10.020Z,19.86
2017-08-19T08:45:35.771Z,19.67
2017-08-19T08:48:01.577Z,19.96
2017-08-19T08:50:27.403Z,19.75
2017-08-19T08:52:53.196Z,19.86
2017-08-19T08:55:18.996Z,19.53
2017-08-19T08:57:44.754Z,19.45
2017-08-19T09:00:10.644Z,19.80
2017-08-19T09:02:36.439Z,19.81
2017-08-19T09:05:02.211Z,19.71
2017-08-19T09:07:27.971Z,19.47
2017-08-19T09:09:53.751Z,19.51
2017-08-19T09:12:19.551Z,20.00
2017-08-19T09:14:45.430Z,21.11
2017-08-19T09:17:11.199Z,21.21
2017-08-19T09:19:37.004Z,20.64
2017-08-19T09:22:02.775Z,20.41
2017-08-19T09:24:28.527Z,20.04
2017-08-19T09:26:54.299Z,19.14
2017-08-19T09:29:20.062Z,19.26
2017-08-19T09:31:45.862Z,19.85
2017-08-19T09:34:11.634Z,20.77
2017-08-19T09:36:37.418Z,20.69
2017-08-19T09:39:03.230Z,21.42
2017-08-19T09:41:28.991Z,20.94
2017-08-19T09:43:54.799Z,21.61
2017-08-19T09:46:20.539Z,21.39
2017-08-19T09:48:46.419Z,22.20
2017-08-19T09:51:12.245Z,21.34
2017-08-19T09:53:37.991Z,20.51
2017-08-19T09:56:03.746Z,21.53
2017-08-19T09:58:29.531Z,21.06
2017-08-19T10:00:55.336Z,20.61
2017-08-19T10:03:21.115Z,20.88
2017-08-19T10:05:46.883Z,20.31
2017-08-19T10:08:25.139Z,22.10
2017-08-19T10:11:03.101Z,22.91
2017-08-19T10:13:28.895Z,22.70
2017-08-19T10:15:54.657Z,22.10
2017-08-19T10:18:20.457Z,22.72
2017-08-19T10:20:46.210Z,23.15
2017-08-19T10:23:12.071Z,22.89
2017-08-19T10:25:37.852Z,21.03
2017-08-19T10:28:03.633Z,20.81
2017-08-19T10:30:29.420Z,20.52
2017-08-19T10:32:55.228Z,20.87
2017-08-19T10:35:21.000Z,21.07
2017-08-19T10:37:46.795Z,21.19
2017-08-19T10:40:12.558Z,21.61
2017-08-19T10:42:38.382Z,21.53
2017-08-19T10:45:04.149Z,21.51
2017-08-19T10:47:29.937Z,21.41
2017-08-19T10:49:55.883Z,21.03
2017-08-19T10:52:21.692Z,21.17
2017-08-19T10:54:47.453Z,22.00
2017-08-19T10:57:13.310Z,21.77
2017-08-19T10:59:39.064Z,22.17
2017-08-19T11:02:04.883Z,22.98
2017-08-19T11:04:30.659Z,22.91
2017-08-19T11:06:56.431Z,23.07
2017-08-19T11:09:22.218Z,23.01
2017-08-19T11:11:48.007Z,23.79
2017-08-19T11:14:13.778Z,23.37
2017-08-19T11:16:39.639Z,24.49
2017-08-19T11:19:05.396Z,24.71
2017-08-19T11:21:31.257Z,24.11
2017-08-19T11:23:57.052Z,24.03
2017-08-19T11:26:22.796Z,23.88
2017-08-19T11:28:48.658Z,24.33
2017-08-19T11:31:14.425Z,24.88
2017-08-19T11:33:40.169Z,25.40
2017-08-19T11:36:06.015Z,24.06
2017-08-19T11:38:31.843Z,25.06
2017-08-19T11:40:57.705Z,25.53
2017-08-19T11:43:23.503Z,24.35
2017-08-19T11:45:49.263Z,24.12
2017-08-19T11:48:15.125Z,24.18
2017-08-19T11:50:40.908Z,25.94
2017-08-19T11:53:06.803Z,25.54
2017-08-19T11:55:32.640Z,24.02
2017-08-19T11:57:58.402Z,23.67
2017-08-19T12:00:24.230Z,23.92
2017-08-19T12:02:50.091Z,22.90
2017-08-19T12:05:15.835Z,22.71
2017-08-19T12:07:41.720Z,22.95
2017-08-19T12:10:07.488Z,24.69
2017-08-19T12:12:33.235Z,25.70
2017-08-19T12:14:59.039Z,26.14
2017-08-19T12:17:24.807Z,25.96
2017-08-19T12:19:50.575Z,26.07
2017-08-19T12:22:16.368Z,26.32
2017-08-19T12:24:42.167Z,26.88
2017-08-19T12:27:07.935Z,25.42
2017-08-19T12:29:33.715Z,25.27
2017-08-19T12:31:59.515Z,25.13
2017-08-19T12:34:25.289Z,26.00
2017-08-19T12:36:51.078Z,25.50
2017-08-19T12:39:16.871Z,25.49
2017-08-19T12:41:42.661Z,25.40
2017-08-19T12:44:08.496Z,24.67
2017-08-19T12:46:34.235Z,25.38
2017-08-19T12:48:59.995Z,25.48
2017-08-19T12:51:25.776Z,26.52
2017-08-19T12:53:51.574Z,27.28
2017-08-19T12:56:17.517Z,26.63
2017-08-19T12:58:43.319Z,26.07
2017-08-19T13:01:09.127Z,26.47
2017-08-19T13:03:34.892Z,26.66
2017-08-19T13:06:00.670Z,25.81
2017-08-19T13:08:26.455Z,24.93
2017-08-19T13:10:52.229Z,25.15
2017-08-19T13:13:18.015Z,25.64
2017-08-19T13:15:43.807Z,25.37
2017-08-19T13:18:09.563Z,24.39
2017-08-19T13:20:35.356Z,24.33
2017-08-19T13:23:01.183Z,24.91
2017-08-19T13:25:26.975Z,24.99
2017-08-19T13:27:52.737Z,24.19
2017-08-19T13:30:18.521Z,22.64
2017-08-19T13:32:44.384Z,22.66
2017-08-19T13:35:10.168Z,22.38
2017-08-19T13:37:35.943Z,22.53
2017-08-19T13:40:01.759Z,23.10
2017-08-19T13:42:27.516Z,22.76
2017-08-19T13:44:53.283Z,22.69
2017-08-19T13:47:19.103Z,22.26
2017-08-19T13:49:44.871Z,22.70
2017-08-19T13:52:10.672Z,22.43
2017-08-19T13:54:37.306Z,22.44
2017-08-19T13:57:03.139Z,22.65
2017-08-19T13:59:29.021Z,22.19
2017-08-19T14:01:54.848Z,21.96
2017-08-19T14:04:20.635Z,21.60
2017-08-19T14:06:46.402Z,21.77
2017-08-19T14:09:12.174Z,21.53
2017-08-19T14:11:37.963Z,22.08
2017-08-19T14:14:03.724Z,22.24
2017-08-19T14:16:29.523Z,22.24
2017-08-19T14:18:55.279Z,23.45
2017-08-19T14:21:21.084Z,23.25
2017-08-19T14:23:46.879Z,22.96
2017-08-19T14:26:12.731Z,24.04
2017-08-19T14:28:38.525Z,23.26
2017-08-19T14:31:04.280Z,22.65
2017-08-19T14:33:30.078Z,22.46
2017-08-19T14:35:55.931Z,22.97
2017-08-19T14:38:21.691Z,23.91
2017-08-19T14:40:47.472Z,24.98
2017-08-19T14:43:13.227Z,24.43
2017-08-19T14:45:39.019Z,23.57
2017-08-19T14:48:04.779Z,24.54
2017-08-19T14:50:30.535Z,25.12
2017-08-19T14:52:57.280Z,25.64
2017-08-19T14:55:23.035Z,25.09
2017-08-19T14:57:48.803Z,24.99
2017-08-19T15:00:14.576Z,24.28
2017-08-19T15:02:40.413Z,23.26
2017-08-19T15:05:06.222Z,25.52
2017-08-19T15:07:32.043Z,26.00
2017-08-19T15:09:57.780Z,26.70
2017-08-19T15:12:23.552Z,23.57
2017-08-19T15:14:49.364Z,24.15
2017-08-19T15:17:15.163Z,25.16
2017-08-19T15:19:40.910Z,23.12
2017-08-19T15:22:06.681Z,22.72
2017-08-19T15:24:32.527Z,22.01
2017-08-19T15:26:58.327Z,22.80
2017-08-19T15:29:24.103Z,22.33
2017-08-19T15:31:49.855Z,22.02
2017-08-19T15:34:15.653Z,21.69
2017-08-19T15:36:41.419Z,21.89
2017-08-19T15:39:07.274Z,21.72
2017-08-19T15:41:33.077Z,21.65
2017-08-19T15:43:58.855Z,23.01
2017-08-19T15:46:24.624Z,22.29
2017-08-19T15:48:50.395Z,23.67
2017-08-19T15:51:16.203Z,24.72
2017-08-19T15:53:42.016Z,23.27
2017-08-19T15:56:07.851Z,22.71
2017-08-19T15:58:33.607Z,23.43
2017-08-19T16:00:59.378Z,23.98
2017-08-19T16:03:25.132Z,24.15
2017-08-19T16:05:50.918Z,24.08
2017-08-19T16:08:16.682Z,23.93
2017-08-19T16:10:42.435Z,24.31
2017-08-19T16:13:08.218Z,23.64
2017-08-19T16:15:33.976Z,23.90
2017-08-19T16:17:59.737Z,22.79
2017-08-19T16:20:25.559Z,22.03
2017-08-19T16:22:51.307Z,22.72
2017-08-19T16:25:17.068Z,23.60
2017-08-19T16:27:42.891Z,24.49
2017-08-19T16:30:08.645Z,23.55
2017-08-19T16:32:34.479Z,23.42
2017-08-19T16:35:00.228Z,23.33
2017-08-19T16:37:26.059Z,23.56
2017-08-19T16:39:51.945Z,23.42
2017-08-19T16:42:17.727Z,23.44
2017-08-19T16:44:43.555Z,23.28
2017-08-19T16:47:09.351Z,23.06
2017-08-19T16:49:35.194Z,23.76
2017-08-19T16:52:00.971Z,23.40
2017-08-19T16:54:26.758Z,23.06
2017-08-19T16:56:52.512Z,23.02
2017-08-19T16:59:18.275Z,22.69
2017-08-19T17:01:44.047Z,21.96
2017-08-19T17:04:09.831Z,22.42
2017-08-19T17:06:35.591Z,22.20
2017-08-19T17:09:01.375Z,21.60
2017-08-19T17:11:27.179Z,20.82
2017-08-19T17:13:52.981Z,20.65
2017-08-19T17:16:18.767Z,20.43
2017-08-19T17:18:44.528Z,20.31
2017-08-19T17:21:10.299Z,20.19
2017-08-19T17:23:36.080Z,20.12
2017-08-19T17:26:01.866Z,20.01
2017-08-19T17:28:27.611Z,20.02
2017-08-19T17:30:53.390Z,19.94
2017-08-19T17:33:19.159Z,20.00
2017-08-19T17:35:44.935Z,19.83
2017-08-19T17:38:10.735Z,19.57
2017-08-19T17:40:36.479Z,19.30
2017-08-19T17:43:02.235Z,19.17
2017-08-19T17:45:28.035Z,19.22
2017-08-19T17:47:53.859Z,19.01
2017-08-19T17:50:19.652Z,18.70
2017-08-19T17:52:45.399Z,18.81
2017-08-19T17:55:11.156Z,18.67
2017-08-19T17:57:36.937Z,18.58
2017-08-19T18:00:02.739Z,18.46
2017-08-19T18:02:28.474Z,18.50
2017-08-19T18:04:54.242Z,18.18
2017-08-19T18:07:20.015Z,18.27
2017-08-19T18:09:45.820Z,18.15
2017-08-19T18:12:11.574Z,18.09
2017-08-19T18:14:37.336Z,17.92
2017-08-19T18:17:03.131Z,18.01
2017-08-19T18:19:30.014Z,17.99
2017-08-19T18:21:55.808Z,17.72
2017-08-19T18:24:21.627Z,17.53
2017-08-19T18:26:47.387Z,17.48
2017-08-19T18:29:13.151Z,17.55
2017-08-19T18:31:38.964Z,17.08
2017-08-19T18:34:05.311Z,17.24
2017-08-19T18:36:31.052Z,17.40
2017-08-19T18:38:56.841Z,17.42
2017-08-19T18:41:22.604Z,17.35
2017-08-19T18:43:48.354Z,17.35
2017-08-19T18:46:14.195Z,17.18
2017-08-19T18:48:40.011Z,16.89
2017-08-19T18:51:05.786Z,16.87
2017-08-19T18:53:31.547Z,16.67
2017-08-19T18:55:57.339Z,16.54
2017-08-19T18:58:23.087Z,16.60
2017-08-19T19:00:48.927Z,16.36
2017-08-19T19:03:14.766Z,16.38
2017-08-19T19:08:19.567Z,16.14
2017-08-19T19:10:45.358Z,16.16
2017-08-19T19:13:11.111Z,15.96
2017-08-19T19:15:36.983Z,15.87
2017-08-19T19:18:02.784Z,15.90
2017-08-19T19:20:28.572Z,15.94
2017-08-19T19:22:54.319Z,15.98
2017-08-19T19:25:20.203Z,15.71
2017-08-19T19:27:45.959Z,15.61
2017-08-19T19:30:11.711Z,15.71
2017-08-19T19:32:37.492Z,15.55
2017-08-19T19:35:03.291Z,15.59
2017-08-19T19:37:29.039Z,15.26
2017-08-19T19:39:54.911Z,15.40
2017-08-19T19:42:20.755Z,15.37
2017-08-19T19:44:46.538Z,15.36
2017-08-19T19:47:12.291Z,15.24
2017-08-19T19:49:38.064Z,15.21
2017-08-19T19:52:03.847Z,15.21
2017-08-19T19:54:29.634Z,15.14
2017-08-19T19:56:55.451Z,14.96
2017-08-19T19:59:21.331Z,14.76
2017-08-19T20:01:47.095Z,14.86
2017-08-19T20:04:12.879Z,14.89
2017-08-19T20:06:38.624Z,14.89
2017-08-19T20:09:04.415Z,14.85
2017-08-19T20:13:55.943Z,14.86
2017-08-19T20:16:21.730Z,14.80
2017-08-19T20:18:47.490Z,14.73
2017-08-19T20:21:13.291Z,14.64
2017-08-19T20:23:39.043Z,14.58
2017-08-19T20:26:04.825Z,14.56
2017-08-19T20:28:30.567Z,14.65
2017-08-19T20:30:56.384Z,14.46
2017-08-19T20:33:22.175Z,14.34
2017-08-19T20:35:47.921Z,14.46
2017-08-19T20:38:13.699Z,14.53
2017-08-19T20:40:39.547Z,14.47
2017-08-19T20:43:05.327Z,14.40
2017-08-19T20:45:31.090Z,14.37
2017-08-19T20:47:56.862Z,14.39
2017-08-19T20:50:22.615Z,14.31
2017-08-19T20:52:48.422Z,14.31
2017-08-19T20:55:14.171Z,14.28
2017-08-19T20:57:39.972Z,14.33
2017-08-19T21:00:05.727Z,14.24
2017-08-19T21:02:31.496Z,14.15
2017-08-19T21:04:57.288Z,14.22
2017-08-19T21:07:23.051Z,14.33
2017-08-19T21:09:49.109Z,14.05
2017-08-19T21:12:14.951Z,14.01
2017-08-19T21:14:40.707Z,14.12
2017-08-19T21:17:06.516Z,14.14
2017-08-19T21:19:32.262Z,14.07
2017-08-19T21:21:58.032Z,13.89
2017-08-19T21:24:23.820Z,13.93
2017-08-19T21:26:49.671Z,13.85
2017-08-19T21:29:15.504Z,13.89
2017-08-19T21:31:41.303Z,13.94
2017-08-19T21:34:07.067Z,13.83
2017-08-19T21:36:32.854Z,13.66
2017-08-19T21:38:58.623Z,13.56
2017-08-19T21:41:24.428Z,13.48
2017-08-19T21:43:50.207Z,13.60
2017-08-19T21:46:15.951Z,13.51
2017-08-19T21:48:41.779Z,13.23
2017-08-19T21:51:07.579Z,13.19
2017-08-19T21:53:33.439Z,13.16
2017-08-19T21:55:59.203Z,13.38
2017-08-19T21:58:25.029Z,13.36
2017-08-19T22:00:50.824Z,13.19
2017-08-19T22:03:16.631Z,13.36
2017-08-19T22:05:42.461Z,13.25
2017-08-19T22:08:08.231Z,13.27
2017-08-19T22:10:33.999Z,13.35
2017-08-19T22:12:59.793Z,13.39
2017-08-19T22:15:25.576Z,13.44
2017-08-19T22:17:51.323Z,13.57
2017-08-19T22:20:17.116Z,13.58
2017-08-19T22:22:42.916Z,13.63
2017-08-19T22:25:08.679Z,13.55
2017-08-19T22:27:34.531Z,13.53
2017-08-19T22:30:00.298Z,13.47
2017-08-19T22:32:26.107Z,13.20
2017-08-19T22:34:51.915Z,12.98
2017-08-19T22:37:17.691Z,13.10
2017-08-19T22:39:43.475Z,13.52
2017-08-19T22:42:09.228Z,13.55
2017-08-19T22:44:34.982Z,13.50
2017-08-19T22:47:00.757Z,13.51
2017-08-19T22:49:26.640Z,13.12
2017-08-19T22:51:52.415Z,13.13
2017-08-19T22:54:18.287Z,13.24
2017-08-19T22:56:44.055Z,13.37
2017-08-19T22:59:09.813Z,13.35
2017-08-19T23:01:35.651Z,13.33
2017-08-19T23:04:01.433Z,13.38
2017-08-19T23:06:27.223Z,13.20
2017-08-19T23:08:52.999Z,13.15
2017-08-19T23:11:18.747Z,13.24
2017-08-19T23:13:44.527Z,13.16
2017-08-19T23:16:10.287Z,13.08
2017-08-19T23:18:36.122Z,12.96
2017-08-19T23:21:01.881Z,12.97
2017-08-19T23:23:27.758Z,13.00
2017-08-19T23:25:53.535Z,12.95
2017-08-19T23:28:19.292Z,12.89
2017-08-19T23:30:45.088Z,12.85
2017-08-19T23:33:10.858Z,12.92
2017-08-19T23:35:36.622Z,12.95
2017-08-19T23:38:02.416Z,13.00
2017-08-19T23:40:28.179Z,13.19
2017-08-19T23:42:53.947Z,12.94
2017-08-19T23:45:19.736Z,12.82
2017-08-19T23:47:45.488Z,13.01
2017-08-19T23:50:11.308Z,13.10
2017-08-19T23:52:37.101Z,12.82
2017-08-19T23:55:02.903Z,13.01
2017-08-19T23:57:28.649Z,12.72
2017-08-19T23:59:54.423Z,12.78
